createdAt,value
2022-12-15T00:00:15.732Z,-6.42
2022-12-15T00:03:00.830Z,-6.37
2022-12-15T00:05:49.929Z,-6.38
2022-12-15T00:08:35.797Z,-6.15
2022-12-15T00:11:21.809Z,-6.03
2022-12-15T00:14:07.257Z,-6.12
2022-12-15T00:16:52.613Z,-6.15
2022-12-15T00:19:38.136Z,-6.11
2022-12-15T00:22:24.853Z,-6.02
2022-12-15T00:25:10.030Z,-6.18
2022-12-15T00:28:01.567Z,-6.38
2022-12-15T00:30:49.850Z,-6.29
2022-12-15T00:33:35.990Z,-6.38
2022-12-15T00:36:21.458Z,-6.26
2022-12-15T00:38:48.240Z,-6.18
2022-12-15T00:41:17.816Z,-6.21
2022-12-15T00:43:45.180Z,-6.09
2022-12-15T00:46:30.544Z,-6.02
2022-12-15T00:48:57.635Z,-6.27
2022-12-15T00:51:43.619Z,-6.27
2022-12-15T00:54:29.319Z,-6.34
2022-12-15T00:57:14.569Z,-6.37
2022-12-15T00:59:59.717Z,-6.36
2022-12-15T01:02:44.989Z,-6.37
2022-12-15T01:05:30.266Z,-6.46
2022-12-15T01:08:18.023Z,-6.33
2022-12-15T01:11:03.196Z,-6.34
2022-12-15T01:13:49.706Z,-6.44
2022-12-15T01:16:35.291Z,-6.51
2022-12-15T01:19:20.615Z,-6.52
2022-12-15T01:21:47.203Z,-6.30
2022-12-15T01:24:13.802Z,-6.46
2022-12-15T01:26:40.382Z,-6.40
2022-12-15T01:29:06.968Z,-6.48
2022-12-15T01:31:33.556Z,-6.32
2022-12-15T01:34:00.126Z,-6.23
2022-12-15T01:36:26.697Z,-6.20
2022-12-15T01:38:54.517Z,-6.17
2022-12-15T01:41:21.629Z,-6.12
2022-12-15T01:43:49.936Z,-6.30
2022-12-15T01:46:19.984Z,-6.24
2022-12-15T01:48:52.227Z,-6.09
2022-12-15T01:51:25.433Z,-6.05
2022-12-15T01:54:05.087Z,-6.11
2022-12-15T01:56:38.260Z,-6.11
2022-12-15T01:59:09.325Z,-6.04
2022-12-15T02:01:36.035Z,-6.01
2022-12-15T02:04:03.243Z,-6.01
2022-12-15T02:06:29.939Z,-6.00
2022-12-15T02:08:59.012Z,-6.05
2022-12-15T02:11:40.863Z,-6.13
2022-12-15T02:14:10.306Z,-6.04
2022-12-15T02:16:39.591Z,-6.01
2022-12-15T02:19:18.065Z,-5.95
2022-12-15T02:22:06.734Z,-5.84
2022-12-15T02:25:08.918Z,-5.91
2022-12-15T02:27:47.821Z,-6.09
2022-12-15T02:30:20.298Z,-6.08
2022-12-15T02:33:23.840Z,-5.92
2022-12-15T02:36:00.429Z,-5.78
2022-12-15T02:38:31.397Z,-5.82
2022-12-15T02:40:59.838Z,-5.81
2022-12-15T02:43:29.289Z,-5.70
2022-12-15T02:46:20.593Z,-5.96
2022-12-15T02:48:59.180Z,-5.69
2022-12-15T02:51:45.976Z,-5.69
2022-12-15T02:54:30.467Z,-5.62
2022-12-15T02:57:31.852Z,-5.48
2022-12-15T03:00:02.431Z,-5.68
2022-12-15T03:02:32.408Z,-5.79
2022-12-15T03:04:59.183Z,-5.69
2022-12-15T03:07:27.919Z,-5.50
2022-12-15T03:09:57.531Z,-5.37
2022-12-15T03:12:24.375Z,-5.50
2022-12-15T03:14:51.040Z,-5.26
2022-12-15T03:17:17.645Z,-5.33
2022-12-15T03:19:44.216Z,-5.32
2022-12-15T03:22:10.849Z,-5.26
2022-12-15T03:24:37.419Z,-5.22
2022-12-15T03:27:04.883Z,-5.30
2022-12-15T03:29:31.430Z,-5.21
2022-12-15T03:31:58.097Z,-5.23
2022-12-15T03:34:24.708Z,-5.26
2022-12-15T03:36:51.331Z,-5.21
2022-12-15T03:39:17.888Z,-5.28
2022-12-15T03:41:44.498Z,-5.29
2022-12-15T03:44:11.246Z,-5.31
2022-12-15T03:46:37.783Z,-5.34
2022-12-15T03:49:04.511Z,-5.36
2022-12-15T03:51:31.315Z,-5.13
2022-12-15T03:53:58.914Z,-5.05
2022-12-15T03:56:25.815Z,-5.00
2022-12-15T03:58:52.354Z,-4.98
2022-12-15T04:01:31.013Z,-4.94
2022-12-15T04:04:00.912Z,-4.83
2022-12-15T04:06:29.276Z,-4.72
2022-12-15T04:08:55.932Z,-4.64
2022-12-15T04:11:22.591Z,-4.65
2022-12-15T04:13:49.142Z,-4.56
2022-12-15T04:16:19.746Z,-4.52
2022-12-15T04:18:46.571Z,-4.52
2022-12-15T04:21:13.154Z,-4.46
2022-12-15T04:23:39.645Z,-4.43
2022-12-15T04:26:24.820Z,-4.50
2022-12-15T04:29:10.078Z,-4.44
2022-12-15T04:31:55.319Z,-4.48
2022-12-15T04:34:42.534Z,-4.56
2022-12-15T04:37:32.674Z,-4.55
2022-12-15T04:40:18.545Z,-4.53
2022-12-15T04:43:05.996Z,-4.48
2022-12-15T04:45:51.668Z,-4.49
2022-12-15T04:48:36.926Z,-4.55
2022-12-15T04:51:23.873Z,-4.61
2022-12-15T04:54:09.371Z,-4.56
2022-12-15T04:56:54.162Z,-4.59
2022-12-15T04:59:39.257Z,-4.64
2022-12-15T05:02:24.314Z,-4.70
2022-12-15T05:05:09.482Z,-4.73
2022-12-15T05:07:55.389Z,-4.74
2022-12-15T05:10:40.550Z,-4.68
2022-12-15T05:13:27.002Z,-4.70
2022-12-15T05:16:12.416Z,-4.81
2022-12-15T05:18:58.091Z,-4.84
2022-12-15T05:21:43.109Z,-5.01
2022-12-15T05:24:27.953Z,-5.05
2022-12-15T05:27:12.812Z,-5.08
2022-12-15T05:29:57.752Z,-5.08
2022-12-15T05:32:24.242Z,-5.02
2022-12-15T05:35:15.783Z,-4.88
2022-12-15T05:37:42.301Z,-5.04
2022-12-15T05:40:09.511Z,-5.03
2022-12-15T05:42:36.032Z,-5.09
2022-12-15T05:45:02.779Z,-5.15
2022-12-15T05:47:29.292Z,-5.07
2022-12-15T05:49:55.821Z,-5.07
2022-12-15T05:52:22.515Z,-5.22
2022-12-15T05:54:49.079Z,-5.15
2022-12-15T05:57:15.574Z,-5.08
2022-12-15T05:59:42.490Z,-5.12
2022-12-15T06:02:09.098Z,-5.02
2022-12-15T06:04:35.988Z,-5.03
2022-12-15T06:07:02.640Z,-5.13
2022-12-15T06:09:29.163Z,-5.03
2022-12-15T06:12:20.417Z,-5.03
2022-12-15T06:14:46.935Z,-5.05
2022-12-15T06:17:16.397Z,-5.07
2022-12-15T06:19:42.944Z,-5.11
2022-12-15T06:22:09.462Z,-5.17
2022-12-15T06:24:36.079Z,-5.12
2022-12-15T06:27:02.635Z,-5.12
2022-12-15T06:29:29.201Z,-5.09
2022-12-15T06:31:55.794Z,-5.28
2022-12-15T06:34:22.665Z,-5.27
2022-12-15T06:36:49.223Z,-5.25
2022-12-15T06:39:16.627Z,-5.12
2022-12-15T06:41:43.501Z,-5.23
2022-12-15T06:44:13.991Z,-5.22
2022-12-15T06:46:40.604Z,-5.23
2022-12-15T06:49:07.832Z,-5.25
2022-12-15T06:51:34.630Z,-5.22
2022-12-15T06:54:01.717Z,-5.17
2022-12-15T06:56:38.850Z,-5.12
2022-12-15T06:59:07.426Z,-5.13
2022-12-15T07:01:34.733Z,-5.27
2022-12-15T07:04:02.907Z,-5.33
2022-12-15T07:06:36.456Z,-5.20
2022-12-15T07:09:04.904Z,-5.17
2022-12-15T07:11:31.797Z,-5.20
2022-12-15T07:13:58.404Z,-5.33
2022-12-15T07:16:25.321Z,-5.31
2022-12-15T07:18:52.257Z,-5.27
2022-12-15T07:21:19.523Z,-5.25
2022-12-15T07:23:54.879Z,-5.40
2022-12-15T07:26:22.829Z,-5.26
2022-12-15T07:28:49.382Z,-5.16
2022-12-15T07:31:16.018Z,-5.08
2022-12-15T07:33:42.994Z,-5.20
2022-12-15T07:36:09.713Z,-5.12
2022-12-15T07:38:36.615Z,-5.22
2022-12-15T07:41:05.708Z,-5.24
2022-12-15T07:43:32.841Z,-5.35
2022-12-15T07:46:00.050Z,-5.13
2022-12-15T07:48:27.351Z,-5.03
2022-12-15T07:51:01.413Z,-5.08
2022-12-15T07:53:34.294Z,-5.13
2022-12-15T07:56:10.165Z,-5.20
2022-12-15T07:58:38.300Z,-5.15
2022-12-15T08:01:12.250Z,-5.01
2022-12-15T08:03:40.241Z,-5.20
2022-12-15T08:06:12.409Z,-5.02
2022-12-15T08:08:40.439Z,-4.99
2022-12-15T08:11:13.389Z,-4.96
2022-12-15T08:16:29.156Z,-4.68
2022-12-15T08:18:57.166Z,-4.77
2022-12-15T08:21:27.736Z,-4.79
2022-12-15T08:23:54.256Z,-4.90
2022-12-15T08:26:25.226Z,-5.11
2022-12-15T08:28:54.854Z,-4.95
2022-12-15T08:31:23.834Z,-4.72
2022-12-15T08:33:50.985Z,-4.68
2022-12-15T08:36:19.337Z,-4.56
2022-12-15T08:38:47.401Z,-4.57
2022-12-15T08:41:23.595Z,-4.52
2022-12-15T08:43:51.453Z,-4.58
2022-12-15T08:46:21.035Z,-4.33
2022-12-15T08:48:48.205Z,-4.40
2022-12-15T08:51:15.438Z,-4.35
2022-12-15T08:53:42.938Z,-4.27
2022-12-15T08:56:15.790Z,-4.38
2022-12-15T08:58:42.494Z,-4.38
2022-12-15T09:01:17.312Z,-4.15
2022-12-15T09:03:47.348Z,-4.07
2022-12-15T09:06:17.167Z,-3.89
2022-12-15T09:08:44.109Z,-3.89
2022-12-15T09:11:16.017Z,-3.91
2022-12-15T09:13:42.684Z,-3.80
2022-12-15T09:16:16.042Z,-4.06
2022-12-15T09:18:45.765Z,-3.63
2022-12-15T09:21:12.361Z,-3.53
2022-12-15T09:23:39.249Z,-3.40
2022-12-15T09:26:14.322Z,-3.23
2022-12-15T09:28:42.950Z,-3.41
2022-12-15T09:31:14.719Z,-3.27
2022-12-15T09:33:44.004Z,-3.47
2022-12-15T09:36:13.127Z,-3.48
2022-12-15T09:38:41.779Z,-3.01
2022-12-15T09:41:14.948Z,-3.15
2022-12-15T09:43:54.530Z,-3.17
2022-12-15T09:46:30.702Z,-3.21
2022-12-15T09:49:01.348Z,-2.91
2022-12-15T09:51:43.082Z,-2.91
2022-12-15T09:54:11.234Z,-2.76
2022-12-15T09:56:44.449Z,-2.56
2022-12-15T09:59:51.804Z,-2.60
2022-12-15T10:02:35.810Z,-2.57
2022-12-15T10:05:16.225Z,-2.29
2022-12-15T10:10:34.849Z,-2.15
2022-12-15T10:13:09.619Z,-2.21
2022-12-15T10:15:50.460Z,-2.25
2022-12-15T10:18:35.262Z,-1.94
2022-12-15T10:21:02.334Z,-1.96
2022-12-15T10:23:29.560Z,-2.02
2022-12-15T10:26:17.956Z,-1.96
2022-12-15T10:29:06.445Z,-1.62
2022-12-15T10:31:52.320Z,-1.68
2022-12-15T10:34:32.301Z,-1.76
2022-12-15T10:36:59.200Z,-1.62
2022-12-15T10:39:38.411Z,-1.46
2022-12-15T10:42:24.865Z,-1.33
2022-12-15T10:44:56.965Z,-1.24
2022-12-15T10:47:26.211Z,-1.13
2022-12-15T10:49:54.489Z,-1.00
2022-12-15T10:52:27.393Z,-1.02
2022-12-15T10:54:59.761Z,-0.99
2022-12-15T10:57:31.392Z,-0.86
2022-12-15T11:00:13.382Z,-0.82
2022-12-15T11:02:42.223Z,-0.76
2022-12-15T11:05:15.806Z,-0.62
2022-12-15T11:07:42.405Z,-0.54
2022-12-15T11:10:48.996Z,-0.53
2022-12-15T11:13:19.843Z,-0.53
2022-12-15T11:15:50.763Z,-0.42
2022-12-15T11:18:42.214Z,-0.44
2022-12-15T11:21:19.363Z,-0.24
2022-12-15T11:24:07.040Z,0.09
2022-12-15T11:26:42.515Z,0.20
2022-12-15T11:29:50.233Z,0.13
2022-12-15T11:32:23.371Z,0.40
2022-12-15T11:34:50.054Z,0.48
2022-12-15T11:37:36.216Z,0.58
2022-12-15T11:40:27.901Z,0.79
2022-12-15T11:43:19.380Z,0.85
2022-12-15T11:46:01.030Z,1.17
2022-12-15T11:49:04.444Z,0.98
2022-12-15T11:51:43.584Z,1.30
2022-12-15T11:54:10.175Z,1.21
2022-12-15T11:56:45.447Z,1.27
2022-12-15T11:59:34.741Z,1.25
2022-12-15T12:02:26.316Z,1.60
2022-12-15T12:05:03.102Z,1.58
2022-12-15T12:07:44.837Z,1.67
2022-12-15T12:10:30.401Z,1.77
2022-12-15T12:13:26.757Z,1.71
2022-12-15T12:16:24.694Z,1.62
2022-12-15T12:19:06.101Z,1.65
2022-12-15T12:21:44.102Z,1.76
2022-12-15T12:24:26.341Z,1.94
2022-12-15T12:27:02.440Z,2.13
2022-12-15T12:29:38.355Z,1.95
2022-12-15T12:32:18.178Z,2.14
2022-12-15T12:35:32.811Z,2.19
2022-12-15T12:38:03.925Z,2.63
2022-12-15T12:41:02.893Z,2.69
2022-12-15T12:43:40.695Z,2.42
2022-12-15T12:46:34.006Z,2.62
2022-12-15T12:49:26.072Z,2.36
2022-12-15T12:51:56.486Z,2.28
2022-12-15T12:54:35.256Z,2.33
2022-12-15T12:57:22.657Z,2.15
2022-12-15T13:00:01.950Z,2.12
2022-12-15T13:02:29.395Z,2.50
2022-12-15T13:05:06.449Z,2.60
2022-12-15T13:07:36.313Z,2.38
2022-12-15T13:10:17.626Z,2.21
2022-12-15T13:12:55.659Z,2.12
2022-12-15T13:15:31.094Z,1.89
2022-12-15T13:18:12.413Z,2.11
2022-12-15T13:20:40.465Z,1.93
2022-12-15T13:23:22.026Z,1.95
2022-12-15T13:26:00.549Z,2.15
2022-12-15T13:28:36.259Z,1.93
2022-12-15T13:31:18.505Z,2.06
2022-12-15T13:33:51.537Z,1.73
2022-12-15T13:36:36.654Z,1.76
2022-12-15T13:39:15.196Z,1.78
2022-12-15T13:42:07.520Z,1.87
2022-12-15T13:44:40.528Z,1.79
2022-12-15T13:47:20.080Z,1.81
2022-12-15T13:49:57.377Z,1.84
2022-12-15T13:55:39.872Z,1.73
2022-12-15T13:58:09.269Z,1.66
2022-12-15T14:00:39.448Z,1.66
2022-12-15T14:03:10.310Z,1.53
2022-12-15T14:05:39.012Z,1.50
2022-12-15T14:08:34.878Z,1.54
2022-12-15T14:14:09.425Z,1.44
2022-12-15T14:17:22.282Z,1.36
2022-12-15T14:20:12.085Z,1.39
2022-12-15T14:22:42.514Z,1.37
2022-12-15T14:25:16.592Z,1.31
2022-12-15T14:27:43.141Z,1.32
2022-12-15T14:34:36.012Z,1.16
2022-12-15T14:37:29.632Z,1.19
2022-12-15T14:40:02.298Z,1.28
2022-12-15T14:42:37.940Z,1.33
2022-12-15T14:45:32.447Z,1.40
2022-12-15T14:48:40.664Z,1.47
2022-12-15T14:51:14.977Z,1.52
2022-12-15T14:53:49.577Z,1.62
2022-12-15T14:56:25.769Z,1.65
2022-12-15T14:59:30.788Z,1.66
2022-12-15T15:02:23.003Z,1.56
2022-12-15T15:05:05.468Z,1.54
2022-12-15T15:07:40.018Z,1.56
2022-12-15T15:11:00.636Z,1.39
2022-12-15T15:13:44.181Z,1.35
2022-12-15T15:16:18.477Z,1.41
2022-12-15T15:18:55.838Z,1.38
2022-12-15T15:21:26.119Z,1.34
2022-12-15T15:24:01.727Z,1.16
2022-12-15T15:26:31.711Z,1.15
2022-12-15T15:28:59.243Z,0.99
2022-12-15T15:31:41.862Z,0.97
2022-12-15T15:34:16.444Z,0.86
2022-12-15T15:36:48.751Z,0.49
2022-12-15T15:39:22.324Z,0.53
2022-12-15T15:41:54.664Z,0.53
2022-12-15T15:44:30.213Z,0.51
2022-12-15T15:47:02.150Z,0.46
2022-12-15T15:49:58.851Z,0.47
2022-12-15T15:52:36.808Z,0.37
2022-12-15T15:55:12.903Z,0.35
2022-12-15T15:57:41.917Z,0.34
2022-12-15T16:00:24.893Z,0.24
2022-12-15T16:02:59.179Z,0.12
2022-12-15T16:05:34.253Z,0.15
2022-12-15T16:08:21.427Z,-0.18
2022-12-15T16:14:03.492Z,-0.04
2022-12-15T16:17:05.842Z,-0.30
2022-12-15T16:19:39.441Z,-0.21
2022-12-15T16:22:14.024Z,-0.43
2022-12-15T16:24:47.393Z,-0.42
2022-12-15T16:27:18.676Z,-0.48
2022-12-15T16:30:10.109Z,-0.45
2022-12-15T16:36:03.599Z,-0.52
2022-12-15T16:38:39.237Z,-0.51
2022-12-15T16:41:14.306Z,-0.64
2022-12-15T16:43:48.201Z,-0.72
2022-12-15T16:46:23.318Z,-0.88
2022-12-15T16:48:51.730Z,-0.93
2022-12-15T16:52:06.823Z,-1.03
2022-12-15T16:54:33.504Z,-1.24
2022-12-15T16:57:00.290Z,-1.14
2022-12-15T16:59:36.812Z,-1.14
2022-12-15T17:02:28.396Z,-1.28
2022-12-15T17:04:58.282Z,-1.32
2022-12-15T17:07:27.528Z,-1.44
2022-12-15T17:09:54.214Z,-1.43
2022-12-15T17:12:20.779Z,-1.46
2022-12-15T17:14:47.557Z,-1.39
2022-12-15T17:17:15.814Z,-1.34
2022-12-15T17:19:57.804Z,-1.50
2022-12-15T17:22:30.327Z,-1.57
2022-12-15T17:24:58.428Z,-1.55
2022-12-15T17:27:34.651Z,-1.53
2022-12-15T17:30:04.371Z,-1.56
2022-12-15T17:32:35.184Z,-1.55
2022-12-15T17:35:07.581Z,-1.55
2022-12-15T17:37:43.253Z,-1.67
2022-12-15T17:40:26.796Z,-1.73
2022-12-15T17:43:13.617Z,-1.78
2022-12-15T17:45:50.935Z,-1.75
2022-12-15T17:48:21.655Z,-1.83
2022-12-15T17:50:52.898Z,-1.87
2022-12-15T17:53:30.372Z,-1.96
2022-12-15T17:56:00.080Z,-2.03
2022-12-15T17:58:27.133Z,-2.13
2022-12-15T18:00:56.649Z,-2.04
2022-12-15T18:03:24.262Z,-2.12
2022-12-15T18:06:03.468Z,-2.28
2022-12-15T18:08:34.651Z,-2.21
2022-12-15T18:11:01.332Z,-2.30
2022-12-15T18:13:35.800Z,-2.42
2022-12-15T18:16:09.847Z,-2.52
2022-12-15T18:18:39.789Z,-2.49
2022-12-15T18:21:19.927Z,-2.49
2022-12-15T18:23:56.425Z,-2.43
2022-12-15T18:26:25.200Z,-2.49
2022-12-15T18:28:52.255Z,-2.54
2022-12-15T18:31:27.949Z,-2.52
2022-12-15T18:34:00.926Z,-2.50
2022-12-15T18:36:31.450Z,-2.42
2022-12-15T18:39:09.472Z,-2.50
2022-12-15T18:42:15.638Z,-2.48
2022-12-15T18:44:49.907Z,-2.59
2022-12-15T18:47:19.583Z,-2.77
2022-12-15T18:49:49.965Z,-2.71
2022-12-15T18:52:31.479Z,-2.73
2022-12-15T18:55:27.072Z,-2.76
2022-12-15T18:58:04.248Z,-2.86
2022-12-15T19:00:38.927Z,-2.89
2022-12-15T19:03:09.214Z,-3.10
2022-12-15T19:05:41.635Z,-2.98
2022-12-15T19:08:18.549Z,-3.32
2022-12-15T19:10:56.264Z,-3.63
2022-12-15T19:13:30.271Z,-3.96
2022-12-15T19:15:58.719Z,-4.10
2022-12-15T19:18:45.308Z,-4.14
2022-12-15T19:21:39.929Z,-3.88
2022-12-15T19:24:09.617Z,-3.75
2022-12-15T19:26:36.232Z,-3.67
2022-12-15T19:29:21.199Z,-3.58
2022-12-15T19:31:48.418Z,-3.55
2022-12-15T19:34:15.312Z,-3.51
2022-12-15T19:36:42.099Z,-3.58
2022-12-15T19:39:19.169Z,-3.55
2022-12-15T19:41:45.798Z,-3.60
2022-12-15T19:44:15.848Z,-3.68
2022-12-15T19:46:43.479Z,-3.75
2022-12-15T19:49:10.517Z,-3.75
2022-12-15T19:51:37.592Z,-3.68
2022-12-15T19:54:04.449Z,-3.84
2022-12-15T19:56:31.086Z,-3.99
2022-12-15T19:58:57.958Z,-3.90
2022-12-15T20:01:30.639Z,-4.04
2022-12-15T20:03:57.250Z,-4.05
2022-12-15T20:06:26.791Z,-3.92
2022-12-15T20:09:18.796Z,-3.98
2022-12-15T20:11:45.943Z,-3.98
2022-12-15T20:14:14.963Z,-3.96
2022-12-15T20:16:41.633Z,-3.88
2022-12-15T20:19:08.236Z,-4.06
2022-12-15T20:21:37.545Z,-4.13
2022-12-15T20:24:20.042Z,-4.08
2022-12-15T20:26:47.022Z,-3.98
2022-12-15T20:29:24.542Z,-4.02
2022-12-15T20:31:55.868Z,-4.05
2022-12-15T20:34:23.741Z,-3.91
2022-12-15T20:37:26.779Z,-3.99
2022-12-15T20:39:57.385Z,-4.22
2022-12-15T20:42:24.739Z,-4.25
2022-12-15T20:44:51.624Z,-4.22
2022-12-15T20:47:26.066Z,-4.15
2022-12-15T20:49:54.772Z,-4.16
2022-12-15T20:52:26.868Z,-4.20
2022-12-15T20:54:54.614Z,-4.16
2022-12-15T20:57:21.659Z,-4.28
2022-12-15T20:59:48.631Z,-4.28
2022-12-15T21:02:19.045Z,-4.37
2022-12-15T21:04:46.407Z,-4.32
2022-12-15T21:07:13.039Z,-4.33
2022-12-15T21:09:40.018Z,-4.38
2022-12-15T21:12:32.757Z,-4.33
2022-12-15T21:14:59.305Z,-4.38
2022-12-15T21:17:26.352Z,-4.62
2022-12-15T21:19:52.890Z,-4.56
2022-12-15T21:22:27.102Z,-4.55
2022-12-15T21:24:56.214Z,-4.53
2022-12-15T21:27:23.027Z,-4.60
2022-12-15T21:29:52.595Z,-4.81
2022-12-15T21:32:20.800Z,-4.91
2022-12-15T21:34:47.334Z,-5.05
2022-12-15T21:37:27.060Z,-4.95
2022-12-15T21:39:54.214Z,-4.99
2022-12-15T21:42:21.127Z,-5.02
2022-12-15T21:44:47.901Z,-4.87
2022-12-15T21:47:26.110Z,-4.84
2022-12-15T21:49:52.675Z,-4.88
2022-12-15T21:52:20.152Z,-5.00
2022-12-15T21:54:46.678Z,-5.15
2022-12-15T21:57:13.289Z,-5.16
2022-12-15T21:59:40.099Z,-5.04
2022-12-15T22:02:36.284Z,-4.94
2022-12-15T22:05:03.076Z,-5.04
2022-12-15T22:07:29.606Z,-5.16
2022-12-15T22:09:56.172Z,-5.11
2022-12-15T22:12:24.318Z,-5.09
2022-12-15T22:14:51.968Z,-5.00
2022-12-15T22:17:21.537Z,-5.00
2022-12-15T22:19:48.200Z,-4.93
2022-12-15T22:22:15.517Z,-4.95
2022-12-15T22:24:42.749Z,-4.92
2022-12-15T22:27:20.939Z,-5.07
2022-12-15T22:29:49.009Z,-5.34
2022-12-15T22:32:16.847Z,-5.37
2022-12-15T22:34:43.465Z,-5.27
2022-12-15T22:37:10.326Z,-5.29
2022-12-15T22:39:37.414Z,-5.36
2022-12-15T22:42:05.091Z,-5.50
2022-12-15T22:44:35.803Z,-5.45
2022-12-15T22:47:04.008Z,-5.48
2022-12-15T22:49:35.325Z,-5.46
2022-12-15T22:52:02.115Z,-5.37
2022-12-15T22:54:29.397Z,-5.47
2022-12-15T22:57:01.016Z,-5.49
2022-12-15T22:59:35.505Z,-5.37
2022-12-15T23:02:03.082Z,-5.43
2022-12-15T23:04:31.756Z,-5.45
2022-12-15T23:07:00.006Z,-5.44
2022-12-15T23:09:26.680Z,-5.33
2022-12-15T23:11:53.408Z,-5.39
2022-12-15T23:14:44.756Z,-5.38
2022-12-15T23:17:12.756Z,-5.38
2022-12-15T23:19:45.965Z,-5.42
2022-12-15T23:22:13.703Z,-5.43
2022-12-15T23:24:40.704Z,-5.45
2022-12-15T23:27:11.541Z,-5.30
2022-12-15T23:29:38.192Z,-5.25
2022-12-15T23:32:04.951Z,-5.28
2022-12-15T23:34:34.667Z,-5.41
2022-12-15T23:37:01.204Z,-5.50
2022-12-15T23:39:27.753Z,-5.55
2022-12-15T23:41:54.235Z,-5.60
2022-12-15T23:44:21.287Z,-5.61
2022-12-15T23:46:47.861Z,-5.51
2022-12-15T23:49:14.529Z,-5.46
2022-12-15T23:51:41.013Z,-5.60
2022-12-15T23:54:07.689Z,-5.66
2022-12-15T23:56:34.752Z,-5.79
2022-12-15T23:59:01.338Z,-5.70
